sensor_id;sensor_type;location;lat;lon;timestamp;P1;durP1;ratioP1;P2;durP2;ratioP2
51686;SDS011;37774;52.192;4.584;2023-11-21T00:01:22;16.23;;;6.38;;
51686;SDS011;37774;52.192;4.584;2023-11-21T00:04:07;27.23;;;6.00;;
51686;SDS011;37774;52.192;4.584;2023-11-21T00:06:53;19.55;;;5.93;;
51686;SDS011;37774;52.192;4.584;2023-11-21T00:09:39;17.33;;;6.15;;
51686;SDS011;37774;52.192;4.584;2023-11-21T00:12:24;19.95;;;5.68;;
51686;SDS011;37774;52.192;4.584;2023-11-21T00:15:09;10.23;;;4.63;;
51686;SDS011;37774;52.192;4.584;2023-11-21T00:17:55;14.52;;;5.32;;
51686;SDS011;37774;52.192;4.584;2023-11-21T00:20:41;17.90;;;5.80;;
51686;SDS011;37774;52.192;4.584;2023-11-21T00:23:27;16.88;;;5.78;;
51686;SDS011;37774;52.192;4.584;2023-11-21T00:26:13;13.45;;;4.43;;
51686;SDS011;37774;52.192;4.584;2023-11-21T00:28:58;15.35;;;5.13;;
51686;SDS011;37774;52.192;4.584;2023-11-21T00:31:43;24.92;;;6.43;;
51686;SDS011;37774;52.192;4.584;2023-11-21T00:34:29;20.83;;;5.85;;
51686;SDS011;37774;52.192;4.584;2023-11-21T00:37:14;16.35;;;5.95;;
51686;SDS011;37774;52.192;4.584;2023-11-21T00:40:01;25.45;;;5.97;;
51686;SDS011;37774;52.192;4.584;2023-11-21T00:42:48;25.95;;;5.65;;
51686;SDS011;37774;52.192;4.584;2023-11-21T00:45:34;15.82;;;4.93;;
51686;SDS011;37774;52.192;4.584;2023-11-21T00:48:20;11.43;;;4.88;;
51686;SDS011;37774;52.192;4.584;2023-11-21T00:51:05;25.52;;;6.25;;
51686;SDS011;37774;52.192;4.584;2023-11-21T00:53:50;24.17;;;6.10;;
51686;SDS011;37774;52.192;4.584;2023-11-21T00:56:37;17.13;;;5.22;;
51686;SDS011;37774;52.192;4.584;2023-11-21T00:59:24;17.80;;;6.65;;
51686;SDS011;37774;52.192;4.584;2023-11-21T01:02:09;14.45;;;6.13;;
51686;SDS011;37774;52.192;4.584;2023-11-21T01:04:54;27.05;;;8.20;;
51686;SDS011;37774;52.192;4.584;2023-11-21T01:07:39;19.35;;;6.05;;
51686;SDS011;37774;52.192;4.584;2023-11-21T01:10:24;20.90;;;5.38;;
51686;SDS011;37774;52.192;4.584;2023-11-21T01:13:11;13.35;;;5.47;;
51686;SDS011;37774;52.192;4.584;2023-11-21T01:15:59;17.92;;;5.20;;
51686;SDS011;37774;52.192;4.584;2023-11-21T01:18:44;12.23;;;4.70;;
51686;SDS011;37774;52.192;4.584;2023-11-21T01:21:29;12.38;;;4.72;;
51686;SDS011;37774;52.192;4.584;2023-11-21T01:24:14;13.18;;;4.90;;
51686;SDS011;37774;52.192;4.584;2023-11-21T01:27:00;17.13;;;5.05;;
51686;SDS011;37774;52.192;4.584;2023-11-21T01:29:46;14.38;;;5.07;;
51686;SDS011;37774;52.192;4.584;2023-11-21T01:32:31;20.77;;;4.80;;
51686;SDS011;37774;52.192;4.584;2023-11-21T01:35:17;10.43;;;4.85;;
51686;SDS011;37774;52.192;4.584;2023-11-21T01:38:03;10.68;;;4.65;;
51686;SDS011;37774;52.192;4.584;2023-11-21T01:40:48;15.20;;;4.88;;
51686;SDS011;37774;52.192;4.584;2023-11-21T01:43:33;19.40;;;5.38;;
51686;SDS011;37774;52.192;4.584;2023-11-21T01:46:20;18.58;;;4.97;;
51686;SDS011;37774;52.192;4.584;2023-11-21T01:51:53;12.90;;;5.05;;
51686;SDS011;37774;52.192;4.584;2023-11-21T01:54:38;15.65;;;5.32;;
51686;SDS011;37774;52.192;4.584;2023-11-21T01:57:24;16.10;;;4.57;;
51686;SDS011;37774;52.192;4.584;2023-11-21T02:00:10;10.35;;;4.57;;
51686;SDS011;37774;52.192;4.584;2023-11-21T02:03:01;14.50;;;5.60;;
51686;SDS011;37774;52.192;4.584;2023-11-21T02:05:46;16.70;;;4.73;;
51686;SDS011;37774;52.192;4.584;2023-11-21T02:08:31;14.60;;;4.82;;
51686;SDS011;37774;52.192;4.584;2023-11-21T02:11:16;17.95;;;5.85;;
51686;SDS011;37774;52.192;4.584;2023-11-21T02:14:03;16.27;;;6.78;;
51686;SDS011;37774;52.192;4.584;2023-11-21T02:16:57;16.88;;;5.82;;
51686;SDS011;37774;52.192;4.584;2023-11-21T02:19:43;9.90;;;4.47;;
51686;SDS011;37774;52.192;4.584;2023-11-21T02:22:30;12.45;;;5.80;;
51686;SDS011;37774;52.192;4.584;2023-11-21T02:25:18;10.50;;;4.10;;
51686;SDS011;37774;52.192;4.584;2023-11-21T02:28:03;16.92;;;5.57;;
51686;SDS011;37774;52.192;4.584;2023-11-21T02:30:50;17.60;;;6.47;;
51686;SDS011;37774;52.192;4.584;2023-11-21T02:33:39;18.52;;;5.15;;
51686;SDS011;37774;52.192;4.584;2023-11-21T02:36:24;12.90;;;5.57;;
51686;SDS011;37774;52.192;4.584;2023-11-21T02:39:09;16.05;;;4.82;;
51686;SDS011;37774;52.192;4.584;2023-11-21T02:41:56;18.38;;;5.65;;
51686;SDS011;37774;52.192;4.584;2023-11-21T02:44:42;13.80;;;4.32;;
51686;SDS011;37774;52.192;4.584;2023-11-21T02:47:27;18.13;;;4.95;;
51686;SDS011;37774;52.192;4.584;2023-11-21T02:50:13;14.55;;;5.05;;
51686;SDS011;37774;52.192;4.584;2023-11-21T02:52:58;13.70;;;4.90;;
51686;SDS011;37774;52.192;4.584;2023-11-21T02:55:43;17.73;;;4.88;;
51686;SDS011;37774;52.192;4.584;2023-11-21T02:58:30;11.10;;;4.50;;
51686;SDS011;37774;52.192;4.584;2023-11-21T03:01:15;14.63;;;4.22;;
51686;SDS011;37774;52.192;4.584;2023-11-21T03:04:00;9.55;;;4.00;;
51686;SDS011;37774;52.192;4.584;2023-11-21T03:06:46;12.70;;;4.35;;
51686;SDS011;37774;52.192;4.584;2023-11-21T03:09:31;12.00;;;5.30;;
51686;SDS011;37774;52.192;4.584;2023-11-21T03:12:17;23.55;;;5.80;;
51686;SDS011;37774;52.192;4.584;2023-11-21T03:15:04;12.55;;;5.13;;
51686;SDS011;37774;52.192;4.584;2023-11-21T03:17:50;17.48;;;5.20;;
51686;SDS011;37774;52.192;4.584;2023-11-21T03:20:35;22.77;;;5.18;;
51686;SDS011;37774;52.192;4.584;2023-11-21T03:23:21;11.88;;;4.05;;
51686;SDS011;37774;52.192;4.584;2023-11-21T03:26:06;19.13;;;4.93;;
51686;SDS011;37774;52.192;4.584;2023-11-21T03:28:52;10.80;;;4.60;;
51686;SDS011;37774;52.192;4.584;2023-11-21T03:31:39;11.35;;;3.90;;
51686;SDS011;37774;52.192;4.584;2023-11-21T03:34:24;10.55;;;4.45;;
51686;SDS011;37774;52.192;4.584;2023-11-21T03:37:10;15.85;;;3.42;;
51686;SDS011;37774;52.192;4.584;2023-11-21T03:39:55;6.72;;;3.33;;
51686;SDS011;37774;52.192;4.584;2023-11-21T03:42:41;14.25;;;3.88;;
51686;SDS011;37774;52.192;4.584;2023-11-21T03:45:26;10.95;;;3.05;;
51686;SDS011;37774;52.192;4.584;2023-11-21T03:48:13;14.20;;;3.97;;
51686;SDS011;37774;52.192;4.584;2023-11-21T03:53:43;9.43;;;2.92;;
51686;SDS011;37774;52.192;4.584;2023-11-21T03:56:28;4.00;;;1.60;;
51686;SDS011;37774;52.192;4.584;2023-11-21T03:59:14;5.88;;;2.72;;
51686;SDS011;37774;52.192;4.584;2023-11-21T04:01:59;8.65;;;2.53;;
51686;SDS011;37774;52.192;4.584;2023-11-21T04:04:45;4.45;;;1.70;;
51686;SDS011;37774;52.192;4.584;2023-11-21T04:07:30;6.70;;;2.37;;
51686;SDS011;37774;52.192;4.584;2023-11-21T04:10:15;9.40;;;2.40;;
51686;SDS011;37774;52.192;4.584;2023-11-21T04:13:01;5.85;;;1.98;;
51686;SDS011;37774;52.192;4.584;2023-11-21T04:15:46;5.13;;;1.77;;
51686;SDS011;37774;52.192;4.584;2023-11-21T04:18:31;3.58;;;1.75;;
51686;SDS011;37774;52.192;4.584;2023-11-21T04:21:17;6.10;;;1.92;;
51686;SDS011;37774;52.192;4.584;2023-11-21T04:24:02;4.40;;;1.90;;
51686;SDS011;37774;52.192;4.584;2023-11-21T04:26:48;8.77;;;1.92;;
51686;SDS011;37774;52.192;4.584;2023-11-21T04:29:33;5.90;;;1.67;;
51686;SDS011;37774;52.192;4.584;2023-11-21T04:32:18;4.15;;;1.80;;
51686;SDS011;37774;52.192;4.584;2023-11-21T04:35:03;8.20;;;1.58;;
51686;SDS011;37774;52.192;4.584;2023-11-21T04:37:51;3.67;;;1.50;;
51686;SDS011;37774;52.192;4.584;2023-11-21T04:40:36;6.82;;;1.73;;
51686;SDS011;37774;52.192;4.584;2023-11-21T04:43:22;6.70;;;1.30;;
51686;SDS011;37774;52.192;4.584;2023-11-21T04:46:08;2.80;;;1.23;;
51686;SDS011;37774;52.192;4.584;2023-11-21T04:48:54;7.65;;;1.52;;
51686;SDS011;37774;52.192;4.584;2023-11-21T04:51:39;4.47;;;1.80;;
51686;SDS011;37774;52.192;4.584;2023-11-21T04:54:26;2.75;;;1.45;;
51686;SDS011;37774;52.192;4.584;2023-11-21T04:57:11;3.42;;;1.23;;
51686;SDS011;37774;52.192;4.584;2023-11-21T04:59:57;5.57;;;1.67;;
51686;SDS011;37774;52.192;4.584;2023-11-21T05:02:42;2.08;;;1.25;;
51686;SDS011;37774;52.192;4.584;2023-11-21T05:05:27;3.15;;;1.40;;
51686;SDS011;37774;52.192;4.584;2023-11-21T05:08:13;2.42;;;0.95;;
51686;SDS011;37774;52.192;4.584;2023-11-21T05:10:59;3.80;;;1.52;;
51686;SDS011;37774;52.192;4.584;2023-11-21T05:13:44;8.18;;;1.67;;
51686;SDS011;37774;52.192;4.584;2023-11-21T05:16:29;7.85;;;0.93;;
51686;SDS011;37774;52.192;4.584;2023-11-21T05:19:15;3.58;;;1.75;;
51686;SDS011;37774;52.192;4.584;2023-11-21T05:22:00;10.45;;;1.67;;
51686;SDS011;37774;52.192;4.584;2023-11-21T05:24:45;4.70;;;1.70;;
51686;SDS011;37774;52.192;4.584;2023-11-21T05:27:31;3.95;;;1.33;;
51686;SDS011;37774;52.192;4.584;2023-11-21T05:30:16;6.60;;;2.10;;
51686;SDS011;37774;52.192;4.584;2023-11-21T05:33:02;8.23;;;2.30;;
51686;SDS011;37774;52.192;4.584;2023-11-21T05:35:47;5.95;;;1.88;;
51686;SDS011;37774;52.192;4.584;2023-11-21T05:38:33;5.25;;;1.65;;
51686;SDS011;37774;52.192;4.584;2023-11-21T05:41:18;5.10;;;1.50;;
51686;SDS011;37774;52.192;4.584;2023-11-21T05:44:06;7.53;;;2.13;;
51686;SDS011;37774;52.192;4.584;2023-11-21T05:46:53;10.85;;;2.00;;
51686;SDS011;37774;52.192;4.584;2023-11-21T05:49:39;10.73;;;2.60;;
51686;SDS011;37774;52.192;4.584;2023-11-21T05:52:24;11.10;;;2.22;;
51686;SDS011;37774;52.192;4.584;2023-11-21T05:55:10;4.30;;;1.88;;
51686;SDS011;37774;52.192;4.584;2023-11-21T05:57:55;10.65;;;1.92;;
51686;SDS011;37774;52.192;4.584;2023-11-21T06:00:42;7.88;;;2.15;;
51686;SDS011;37774;52.192;4.584;2023-11-21T06:03:27;17.27;;;2.95;;
51686;SDS011;37774;52.192;4.584;2023-11-21T06:06:12;18.25;;;1.90;;
51686;SDS011;37774;52.192;4.584;2023-11-21T06:08:58;5.55;;;2.40;;
51686;SDS011;37774;52.192;4.584;2023-11-21T06:11:44;20.88;;;2.88;;
51686;SDS011;37774;52.192;4.584;2023-11-21T06:14:29;12.70;;;2.90;;
51686;SDS011;37774;52.192;4.584;2023-11-21T06:17:18;15.95;;;2.97;;
51686;SDS011;37774;52.192;4.584;2023-11-21T06:20:04;9.52;;;2.25;;
51686;SDS011;37774;52.192;4.584;2023-11-21T06:22:53;16.52;;;2.47;;
51686;SDS011;37774;52.192;4.584;2023-11-21T06:25:38;10.85;;;2.40;;
51686;SDS011;37774;52.192;4.584;2023-11-21T06:28:24;7.20;;;2.90;;
51686;SDS011;37774;52.192;4.584;2023-11-21T06:31:10;9.13;;;2.60;;
51686;SDS011;37774;52.192;4.584;2023-11-21T06:33:57;6.88;;;2.75;;
51686;SDS011;37774;52.192;4.584;2023-11-21T06:36:43;13.27;;;2.53;;
51686;SDS011;37774;52.192;4.584;2023-11-21T06:39:29;14.45;;;3.22;;
51686;SDS011;37774;52.192;4.584;2023-11-21T06:42:14;13.23;;;2.95;;
51686;SDS011;37774;52.192;4.584;2023-11-21T06:45:00;17.92;;;2.88;;
51686;SDS011;37774;52.192;4.584;2023-11-21T06:47:47;12.35;;;3.05;;
51686;SDS011;37774;52.192;4.584;2023-11-21T06:50:34;23.10;;;3.33;;
51686;SDS011;37774;52.192;4.584;2023-11-21T06:53:20;7.53;;;2.47;;
51686;SDS011;37774;52.192;4.584;2023-11-21T06:56:14;12.55;;;2.75;;
51686;SDS011;37774;52.192;4.584;2023-11-21T06:59:00;12.55;;;2.58;;
51686;SDS011;37774;52.192;4.584;2023-11-21T07:01:47;9.70;;;2.13;;
51686;SDS011;37774;52.192;4.584;2023-11-21T07:04:33;12.35;;;2.40;;
51686;SDS011;37774;52.192;4.584;2023-11-21T07:07:19;6.93;;;2.53;;
51686;SDS011;37774;52.192;4.584;2023-11-21T07:10:05;7.18;;;2.17;;
51686;SDS011;37774;52.192;4.584;2023-11-21T07:15:37;10.43;;;2.13;;
51686;SDS011;37774;52.192;4.584;2023-11-21T07:18:23;20.02;;;2.85;;
51686;SDS011;37774;52.192;4.584;2023-11-21T07:21:08;12.65;;;2.60;;
51686;SDS011;37774;52.192;4.584;2023-11-21T07:24:00;10.63;;;3.13;;
51686;SDS011;37774;52.192;4.584;2023-11-21T07:26:46;8.35;;;2.78;;
51686;SDS011;37774;52.192;4.584;2023-11-21T07:29:32;9.68;;;3.22;;
51686;SDS011;37774;52.192;4.584;2023-11-21T07:32:18;10.85;;;3.53;;
51686;SDS011;37774;52.192;4.584;2023-11-21T07:35:03;8.48;;;3.92;;
51686;SDS011;37774;52.192;4.584;2023-11-21T07:37:49;11.10;;;3.65;;
51686;SDS011;37774;52.192;4.584;2023-11-21T07:40:36;19.98;;;3.90;;
51686;SDS011;37774;52.192;4.584;2023-11-21T07:43:22;8.90;;;3.40;;
51686;SDS011;37774;52.192;4.584;2023-11-21T07:46:07;21.27;;;4.07;;
51686;SDS011;37774;52.192;4.584;2023-11-21T07:48:54;15.30;;;3.63;;
51686;SDS011;37774;52.192;4.584;2023-11-21T07:51:40;15.15;;;4.20;;
51686;SDS011;37774;52.192;4.584;2023-11-21T07:54:25;12.02;;;3.50;;
51686;SDS011;37774;52.192;4.584;2023-11-21T07:57:13;16.17;;;4.43;;
51686;SDS011;37774;52.192;4.584;2023-11-21T07:59:58;19.38;;;3.90;;
51686;SDS011;37774;52.192;4.584;2023-11-21T08:02:44;12.00;;;3.63;;
51686;SDS011;37774;52.192;4.584;2023-11-21T08:05:30;16.52;;;3.75;;
51686;SDS011;37774;52.192;4.584;2023-11-21T08:08:15;8.52;;;3.63;;
51686;SDS011;37774;52.192;4.584;2023-11-21T08:11:02;15.75;;;3.45;;
51686;SDS011;37774;52.192;4.584;2023-11-21T08:13:49;13.27;;;3.65;;
51686;SDS011;37774;52.192;4.584;2023-11-21T08:16:34;16.67;;;3.80;;
51686;SDS011;37774;52.192;4.584;2023-11-21T08:19:20;9.82;;;2.80;;
51686;SDS011;37774;52.192;4.584;2023-11-21T08:22:06;16.33;;;3.15;;
51686;SDS011;37774;52.192;4.584;2023-11-21T08:24:53;15.60;;;3.75;;
51686;SDS011;37774;52.192;4.584;2023-11-21T08:27:39;10.70;;;3.28;;
51686;SDS011;37774;52.192;4.584;2023-11-21T08:30:26;10.00;;;3.17;;
51686;SDS011;37774;52.192;4.584;2023-11-21T08:33:13;10.07;;;3.47;;
51686;SDS011;37774;52.192;4.584;2023-11-21T08:35:58;20.15;;;3.50;;
51686;SDS011;37774;52.192;4.584;2023-11-21T08:38:44;12.90;;;5.15;;
51686;SDS011;37774;52.192;4.584;2023-11-21T08:41:30;21.80;;;4.88;;
51686;SDS011;37774;52.192;4.584;2023-11-21T08:44:15;12.98;;;4.43;;
51686;SDS011;37774;52.192;4.584;2023-11-21T08:47:03;17.23;;;4.13;;
51686;SDS011;37774;52.192;4.584;2023-11-21T08:49:48;10.18;;;4.35;;
51686;SDS011;37774;52.192;4.584;2023-11-21T08:52:37;16.90;;;4.28;;
51686;SDS011;37774;52.192;4.584;2023-11-21T08:55:22;15.73;;;4.88;;
51686;SDS011;37774;52.192;4.584;2023-11-21T08:58:07;8.52;;;4.57;;
51686;SDS011;37774;52.192;4.584;2023-11-21T09:00:53;12.65;;;5.05;;
51686;SDS011;37774;52.192;4.584;2023-11-21T09:03:39;12.10;;;4.78;;
51686;SDS011;37774;52.192;4.584;2023-11-21T09:06:25;16.80;;;5.82;;
51686;SDS011;37774;52.192;4.584;2023-11-21T09:09:10;19.98;;;5.80;;
51686;SDS011;37774;52.192;4.584;2023-11-21T09:11:56;17.95;;;5.78;;
51686;SDS011;37774;52.192;4.584;2023-11-21T09:14:41;9.70;;;4.80;;
51686;SDS011;37774;52.192;4.584;2023-11-21T09:17:27;17.85;;;6.93;;
51686;SDS011;37774;52.192;4.584;2023-11-21T09:20:14;24.10;;;5.82;;
51686;SDS011;37774;52.192;4.584;2023-11-21T09:22:59;28.15;;;7.65;;
51686;SDS011;37774;52.192;4.584;2023-11-21T09:25:48;18.80;;;6.70;;
51686;SDS011;37774;52.192;4.584;2023-11-21T09:28:35;17.45;;;6.40;;
51686;SDS011;37774;52.192;4.584;2023-11-21T09:31:22;19.48;;;6.53;;
51686;SDS011;37774;52.192;4.584;2023-11-21T09:34:08;16.70;;;6.53;;
51686;SDS011;37774;52.192;4.584;2023-11-21T09:36:55;18.60;;;7.90;;
51686;SDS011;37774;52.192;4.584;2023-11-21T09:42:28;16.00;;;6.35;;
51686;SDS011;37774;52.192;4.584;2023-11-21T09:45:21;20.17;;;7.07;;
51686;SDS011;37774;52.192;4.584;2023-11-21T09:48:10;17.85;;;7.50;;
51686;SDS011;37774;52.192;4.584;2023-11-21T09:50:56;14.60;;;5.75;;
51686;SDS011;37774;52.192;4.584;2023-11-21T09:53:44;22.20;;;7.70;;
51686;SDS011;37774;52.192;4.584;2023-11-21T09:56:34;14.82;;;7.00;;
51686;SDS011;37774;52.192;4.584;2023-11-21T09:59:19;17.83;;;6.60;;
51686;SDS011;37774;52.192;4.584;2023-11-21T10:02:05;22.02;;;8.23;;
51686;SDS011;37774;52.192;4.584;2023-11-21T10:04:56;16.88;;;7.60;;
51686;SDS011;37774;52.192;4.584;2023-11-21T10:07:43;16.65;;;6.95;;
51686;SDS011;37774;52.192;4.584;2023-11-21T10:10:32;17.77;;;6.45;;
51686;SDS011;37774;52.192;4.584;2023-11-21T10:13:17;10.82;;;5.70;;
51686;SDS011;37774;52.192;4.584;2023-11-21T10:16:04;11.57;;;5.45;;
51686;SDS011;37774;52.192;4.584;2023-11-21T10:18:52;20.67;;;7.28;;
51686;SDS011;37774;52.192;4.584;2023-11-21T10:21:39;13.68;;;5.40;;
51686;SDS011;37774;52.192;4.584;2023-11-21T10:24:24;12.52;;;4.53;;
51686;SDS011;37774;52.192;4.584;2023-11-21T10:27:12;15.30;;;5.95;;
51686;SDS011;37774;52.192;4.584;2023-11-21T10:29:57;17.48;;;6.43;;
51686;SDS011;37774;52.192;4.584;2023-11-21T10:32:42;13.52;;;6.53;;
51686;SDS011;37774;52.192;4.584;2023-11-21T10:35:38;13.23;;;4.78;;
51686;SDS011;37774;52.192;4.584;2023-11-21T10:38:25;18.73;;;5.20;;
51686;SDS011;37774;52.192;4.584;2023-11-21T10:41:11;18.52;;;6.40;;
51686;SDS011;37774;52.192;4.584;2023-11-21T10:44:00;18.65;;;6.13;;
51686;SDS011;37774;52.192;4.584;2023-11-21T10:46:48;14.65;;;5.47;;
51686;SDS011;37774;52.192;4.584;2023-11-21T10:49:35;16.20;;;7.35;;
51686;SDS011;37774;52.192;4.584;2023-11-21T10:52:26;19.90;;;7.63;;
51686;SDS011;37774;52.192;4.584;2023-11-21T10:55:18;18.05;;;7.20;;
51686;SDS011;37774;52.192;4.584;2023-11-21T10:58:05;22.42;;;8.13;;
51686;SDS011;37774;52.192;4.584;2023-11-21T11:00:52;20.25;;;7.20;;
51686;SDS011;37774;52.192;4.584;2023-11-21T11:03:38;20.30;;;7.63;;
51686;SDS011;37774;52.192;4.584;2023-11-21T11:06:24;24.08;;;6.85;;
51686;SDS011;37774;52.192;4.584;2023-11-21T11:09:11;20.42;;;7.13;;
51686;SDS011;37774;52.192;4.584;2023-11-21T11:12:01;20.95;;;7.50;;
51686;SDS011;37774;52.192;4.584;2023-11-21T11:14:48;17.75;;;7.00;;
51686;SDS011;37774;52.192;4.584;2023-11-21T11:17:35;16.48;;;7.43;;
51686;SDS011;37774;52.192;4.584;2023-11-21T11:20:24;18.10;;;6.80;;
51686;SDS011;37774;52.192;4.584;2023-11-21T11:23:23;14.85;;;5.38;;
51686;SDS011;37774;52.192;4.584;2023-11-21T11:26:21;14.07;;;6.30;;
51686;SDS011;37774;52.192;4.584;2023-11-21T11:29:18;16.50;;;6.65;;
51686;SDS011;37774;52.192;4.584;2023-11-21T11:32:16;12.35;;;6.18;;
51686;SDS011;37774;52.192;4.584;2023-11-21T11:35:13;13.95;;;5.72;;
51686;SDS011;37774;52.192;4.584;2023-11-21T11:38:07;13.80;;;5.63;;
51686;SDS011;37774;52.192;4.584;2023-11-21T11:40:54;21.48;;;5.57;;
51686;SDS011;37774;52.192;4.584;2023-11-21T11:43:39;15.75;;;6.10;;
51686;SDS011;37774;52.192;4.584;2023-11-21T11:46:40;12.55;;;6.05;;
51686;SDS011;37774;52.192;4.584;2023-11-21T11:49:27;18.95;;;6.85;;
51686;SDS011;37774;52.192;4.584;2023-11-21T11:52:33;13.70;;;6.33;;
51686;SDS011;37774;52.192;4.584;2023-11-21T11:55:20;21.25;;;7.97;;
51686;SDS011;37774;52.192;4.584;2023-11-21T11:58:06;24.38;;;7.20;;
51686;SDS011;37774;52.192;4.584;2023-11-21T12:00:53;20.00;;;7.83;;
51686;SDS011;37774;52.192;4.584;2023-11-21T12:03:38;16.15;;;6.38;;
51686;SDS011;37774;52.192;4.584;2023-11-21T12:06:30;17.67;;;7.25;;
51686;SDS011;37774;52.192;4.584;2023-11-21T12:09:20;17.15;;;7.78;;
51686;SDS011;37774;52.192;4.584;2023-11-21T12:12:06;15.10;;;6.47;;
51686;SDS011;37774;52.192;4.584;2023-11-21T12:14:53;14.63;;;6.43;;
51686;SDS011;37774;52.192;4.584;2023-11-21T12:17:39;14.30;;;5.70;;
51686;SDS011;37774;52.192;4.584;2023-11-21T12:20:24;11.18;;;5.57;;
51686;SDS011;37774;52.192;4.584;2023-11-21T12:23:11;17.45;;;6.78;;
51686;SDS011;37774;52.192;4.584;2023-11-21T12:26:00;14.98;;;6.85;;
51686;SDS011;37774;52.192;4.584;2023-11-21T12:28:51;15.05;;;7.05;;
51686;SDS011;37774;52.192;4.584;2023-11-21T12:31:39;13.85;;;6.50;;
51686;SDS011;37774;52.192;4.584;2023-11-21T12:34:25;18.90;;;7.07;;
51686;SDS011;37774;52.192;4.584;2023-11-21T12:37:10;14.07;;;6.22;;
51686;SDS011;37774;52.192;4.584;2023-11-21T12:39:56;14.30;;;4.93;;
51686;SDS011;37774;52.192;4.584;2023-11-21T12:42:43;12.00;;;5.50;;
51686;SDS011;37774;52.192;4.584;2023-11-21T12:45:30;11.75;;;5.13;;
51686;SDS011;37774;52.192;4.584;2023-11-21T12:48:15;12.65;;;5.57;;
51686;SDS011;37774;52.192;4.584;2023-11-21T12:51:08;13.57;;;5.10;;
51686;SDS011;37774;52.192;4.584;2023-11-21T12:53:54;19.65;;;6.13;;
51686;SDS011;37774;52.192;4.584;2023-11-21T12:56:40;11.63;;;4.90;;
51686;SDS011;37774;52.192;4.584;2023-11-21T12:59:26;12.05;;;5.07;;
51686;SDS011;37774;52.192;4.584;2023-11-21T13:02:12;12.52;;;5.32;;
51686;SDS011;37774;52.192;4.584;2023-11-21T13:04:57;12.27;;;5.67;;
51686;SDS011;37774;52.192;4.584;2023-11-21T13:07:42;16.70;;;6.07;;
51686;SDS011;37774;52.192;4.584;2023-11-21T13:10:31;15.35;;;6.22;;
51686;SDS011;37774;52.192;4.584;2023-11-21T13:13:17;13.63;;;5.72;;
51686;SDS011;37774;52.192;4.584;2023-11-21T13:16:03;16.20;;;5.47;;
51686;SDS011;37774;52.192;4.584;2023-11-21T13:18:49;14.85;;;5.85;;
51686;SDS011;37774;52.192;4.584;2023-11-21T13:21:34;15.02;;;5.72;;
51686;SDS011;37774;52.192;4.584;2023-11-21T13:24:19;15.60;;;5.28;;
51686;SDS011;37774;52.192;4.584;2023-11-21T13:27:05;12.70;;;5.38;;
51686;SDS011;37774;52.192;4.584;2023-11-21T13:29:50;15.13;;;6.43;;
51686;SDS011;37774;52.192;4.584;2023-11-21T13:32:37;13.25;;;6.32;;
51686;SDS011;37774;52.192;4.584;2023-11-21T13:35:24;14.35;;;6.68;;
51686;SDS011;37774;52.192;4.584;2023-11-21T13:38:18;14.60;;;6.53;;
51686;SDS011;37774;52.192;4.584;2023-11-21T13:41:06;19.55;;;6.30;;
51686;SDS011;37774;52.192;4.584;2023-11-21T13:43:53;16.95;;;7.25;;
51686;SDS011;37774;52.192;4.584;2023-11-21T13:46:47;19.40;;;6.18;;
51686;SDS011;37774;52.192;4.584;2023-11-21T13:49:34;20.30;;;7.30;;
51686;SDS011;37774;52.192;4.584;2023-11-21T13:52:25;15.25;;;6.50;;
51686;SDS011;37774;52.192;4.584;2023-11-21T13:55:11;14.60;;;7.33;;
51686;SDS011;37774;52.192;4.584;2023-11-21T13:57:59;19.27;;;8.15;;
51686;SDS011;37774;52.192;4.584;2023-11-21T14:00:44;15.63;;;7.90;;
51686;SDS011;37774;52.192;4.584;2023-11-21T14:03:30;18.25;;;8.25;;
51686;SDS011;37774;52.192;4.584;2023-11-21T14:06:24;15.77;;;7.50;;
51686;SDS011;37774;52.192;4.584;2023-11-21T14:09:17;18.92;;;8.23;;
51686;SDS011;37774;52.192;4.584;2023-11-21T14:12:06;18.45;;;7.50;;
51686;SDS011;37774;52.192;4.584;2023-11-21T14:14:51;26.38;;;8.77;;
51686;SDS011;37774;52.192;4.584;2023-11-21T14:17:38;15.70;;;8.30;;
51686;SDS011;37774;52.192;4.584;2023-11-21T14:20:24;16.33;;;8.13;;
51686;SDS011;37774;52.192;4.584;2023-11-21T14:23:11;22.55;;;8.23;;
51686;SDS011;37774;52.192;4.584;2023-11-21T14:25:56;18.67;;;8.57;;
51686;SDS011;37774;52.192;4.584;2023-11-21T14:28:42;17.48;;;7.15;;
51686;SDS011;37774;52.192;4.584;2023-11-21T14:31:27;13.52;;;7.10;;
51686;SDS011;37774;52.192;4.584;2023-11-21T14:34:14;16.00;;;6.70;;
51686;SDS011;37774;52.192;4.584;2023-11-21T14:36:59;16.48;;;7.20;;
51686;SDS011;37774;52.192;4.584;2023-11-21T14:39:48;15.13;;;6.07;;
51686;SDS011;37774;52.192;4.584;2023-11-21T14:42:33;13.40;;;5.97;;
51686;SDS011;37774;52.192;4.584;2023-11-21T14:45:20;14.27;;;5.95;;
51686;SDS011;37774;52.192;4.584;2023-11-21T14:48:08;11.50;;;5.43;;
51686;SDS011;37774;52.192;4.584;2023-11-21T14:50:59;15.32;;;5.75;;
51686;SDS011;37774;52.192;4.584;2023-11-21T14:54:02;13.60;;;5.78;;
51686;SDS011;37774;52.192;4.584;2023-11-21T14:56:55;14.20;;;5.90;;
51686;SDS011;37774;52.192;4.584;2023-11-21T14:59:44;11.70;;;5.70;;
51686;SDS011;37774;52.192;4.584;2023-11-21T15:02:31;15.82;;;5.68;;
51686;SDS011;37774;52.192;4.584;2023-11-21T15:05:33;16.33;;;6.85;;
51686;SDS011;37774;52.192;4.584;2023-11-21T15:08:19;12.73;;;5.83;;
51686;SDS011;37774;52.192;4.584;2023-11-21T15:11:07;12.82;;;5.55;;
51686;SDS011;37774;52.192;4.584;2023-11-21T15:13:59;12.75;;;5.85;;
51686;SDS011;37774;52.192;4.584;2023-11-21T15:16:49;11.93;;;6.40;;
51686;SDS011;37774;52.192;4.584;2023-11-21T15:19:37;17.13;;;5.75;;
51686;SDS011;37774;52.192;4.584;2023-11-21T15:22:22;11.82;;;5.38;;
51686;SDS011;37774;52.192;4.584;2023-11-21T15:25:09;13.02;;;5.50;;
51686;SDS011;37774;52.192;4.584;2023-11-21T15:27:56;14.48;;;6.45;;
51686;SDS011;37774;52.192;4.584;2023-11-21T15:30:43;15.95;;;6.05;;
51686;SDS011;37774;52.192;4.584;2023-11-21T15:33:30;14.98;;;7.15;;
51686;SDS011;37774;52.192;4.584;2023-11-21T15:36:15;16.83;;;6.70;;
51686;SDS011;37774;52.192;4.584;2023-11-21T15:39:00;12.30;;;6.32;;
51686;SDS011;37774;52.192;4.584;2023-11-21T15:41:46;12.35;;;6.20;;
51686;SDS011;37774;52.192;4.584;2023-11-21T15:44:31;17.10;;;7.93;;
51686;SDS011;37774;52.192;4.584;2023-11-21T15:47:18;14.63;;;6.88;;
51686;SDS011;37774;52.192;4.584;2023-11-21T15:50:04;16.42;;;7.57;;
51686;SDS011;37774;52.192;4.584;2023-11-21T15:52:54;15.00;;;8.48;;
51686;SDS011;37774;52.192;4.584;2023-11-21T15:55:39;20.05;;;8.23;;
51686;SDS011;37774;52.192;4.584;2023-11-21T15:58:26;16.63;;;8.00;;
51686;SDS011;37774;52.192;4.584;2023-11-21T16:01:12;17.23;;;7.97;;
51686;SDS011;37774;52.192;4.584;2023-11-21T16:03:59;15.73;;;7.30;;
51686;SDS011;37774;52.192;4.584;2023-11-21T16:06:45;16.15;;;8.07;;
51686;SDS011;37774;52.192;4.584;2023-11-21T16:09:31;17.35;;;8.43;;
51686;SDS011;37774;52.192;4.584;2023-11-21T16:12:16;14.48;;;7.70;;
51686;SDS011;37774;52.192;4.584;2023-11-21T16:15:01;15.18;;;6.97;;
51686;SDS011;37774;52.192;4.584;2023-11-21T16:17:51;18.40;;;8.00;;
51686;SDS011;37774;52.192;4.584;2023-11-21T16:20:38;20.75;;;7.65;;
51686;SDS011;37774;52.192;4.584;2023-11-21T16:23:23;17.63;;;7.25;;
51686;SDS011;37774;52.192;4.584;2023-11-21T16:26:08;16.42;;;7.82;;
51686;SDS011;37774;52.192;4.584;2023-11-21T16:28:55;14.80;;;7.40;;
51686;SDS011;37774;52.192;4.584;2023-11-21T16:31:40;15.55;;;6.90;;
51686;SDS011;37774;52.192;4.584;2023-11-21T16:34:26;15.30;;;6.88;;
51686;SDS011;37774;52.192;4.584;2023-11-21T16:37:13;17.33;;;6.75;;
51686;SDS011;37774;52.192;4.584;2023-11-21T16:39:58;12.60;;;6.90;;
51686;SDS011;37774;52.192;4.584;2023-11-21T16:42:43;18.25;;;7.70;;